Alkor — DBIG — position and weather

sailwx.info

Track history (hours):
 
Tides and Currents Weather Stations Pressure Air Temp Water Temp Dewpoint Dewpoint Depression Visibility Wind Speed Wind Dir Waves Ship Positions

Oceanographic research ship Alkor (Germany)

Detailed information on ship capabilities available from University of Delaware's Ocean Information Center.

Last reported at 2017-Mar-30 12:15 UTC. Time now 2017-May-28 02:41 UTC.
Position N 54°02' E 011°15'.
Warning: this ship's position is 58 days out of date.

Length 49 m; draft 2.4 m.

Type: Law enforcement. MMSI: 211236510.

Date/timePositionNaut miles runAvg speedWind from/ knotsBaromVisibWave heightAir tempDewpointWater temp
2017-Mar-30 12:15N 54°02' E 011°15'0 0.4
2017-Mar-30 11:31N 54°01' E 011°15'27 1.1
2017-Mar-29 10:33N 54°28' E 011°22'7 7.3
2017-Mar-29 09:34N 54°32' E 011°13'10 9.9
2017-Mar-29 08:34N 54°33' E 010°56'12 0.6
2017-Mar-28 12:22N 54°31' E 010°35'  
2017-Mar-24 08:10N 54°14' E 011°12'9 5.7
2017-Mar-24 06:34N 54°23' E 011°15'3 0.3
2017-Mar-23 20:18N 54°23' E 011°20'5 6.5
2017-Mar-23 19:33N 54°22' E 011°28'6 6.4
2017-Mar-23 18:34N 54°21' E 011°39'4 3.6
2017-Mar-23 17:33N 54°22' E 011°45'3 3.4
2017-Mar-23 16:32N 54°24' E 011°39'7 6.7
2017-Mar-23 15:33N 54°25' E 011°28'6 5.7
2017-Mar-23 14:33N 54°28' E 011°20'6 5.6
2017-Mar-23 13:33N 54°32' E 011°14'6 6.1
2017-Mar-23 12:33N 54°33' E 011°04'6 5.9
2017-Mar-23 11:33N 54°31' E 010°54'5 5.0
2017-Mar-23 10:34N 54°26' E 010°53'6 5.9
2017-Mar-23 09:33N 54°23' E 011°02'1 0.6
2017-Mar-23 08:33N 54°24' E 011°02'5 5.3
2017-Mar-23 07:33N 54°23' E 010°53'6 5.5
2017-Mar-23 06:33N 54°21' E 010°44'8 0.8
2017-Mar-22 19:32N 54°25' E 010°56'6 4.9
2017-Mar-22 18:16N 54°31' E 010°58'2 2.2
2017-Mar-22 17:33N 54°30' E 010°56'5 4.9
2017-Mar-22 16:33N 54°25' E 010°56'2 1.6
2017-Mar-22 15:33N 54°25' E 010°59'6 5.7
2017-Mar-22 14:33N 54°27' E 010°49'5 4.4
2017-Mar-22 13:31N 54°28' E 010°42'1 1.5
2017-Mar-22 12:33N 54°30' E 010°41'1 1.4
2017-Mar-22 11:33N 54°31' E 010°42'2 2.1
2017-Mar-22 10:33N 54°33' E 010°40'5 0.3
2017-Mar-21 14:24N 54°33' E 010°30'8 9.2
2017-Mar-21 13:33N 54°33' E 010°44'5 4.6
2017-Mar-21 12:33N 54°33' E 010°52'5 4.9
2017-Mar-21 11:33N 54°34' E 011°00'5 4.8
2017-Mar-21 10:33N 54°33' E 011°08'5 5.2
2017-Mar-21 09:33N 54°31' E 011°17'6 6.1
2017-Mar-21 08:33N 54°26' E 011°21'2 0.2
2017-Mar-20 18:14N 54°27' E 011°18'  
Track history (hours):
 
Tides and Currents Weather Stations Pressure Air Temp Water Temp Dewpoint Dewpoint Depression Visibility Wind Speed Wind Dir Waves Ship Positions

Oceanographic research ship Alkor (Germany)

Detailed information on ship capabilities available from University of Delaware's Ocean Information Center.

Last reported at 2017-Mar-30 12:15 UTC. Time now 2017-May-28 02:41 UTC.
Position N 54°02' E 011°15'.
Warning: this ship's position is 58 days out of date.

Length 49 m; draft 2.4 m.

Type: Law enforcement. MMSI: 211236510.

Date/timePositionNaut miles runAvg speedWind from/ knotsBaromVisibWave heightAir tempDewpointWater temp
2017-Mar-30 12:15N 54°02' E 011°15'0 0.4
2017-Mar-30 11:31N 54°01' E 011°15'27 1.1
2017-Mar-29 10:33N 54°28' E 011°22'7 7.3
2017-Mar-29 09:34N 54°32' E 011°13'10 9.9
2017-Mar-29 08:34N 54°33' E 010°56'12 0.6
2017-Mar-28 12:22N 54°31' E 010°35'  
2017-Mar-24 08:10N 54°14' E 011°12'9 5.7
2017-Mar-24 06:34N 54°23' E 011°15'3 0.3
2017-Mar-23 20:18N 54°23' E 011°20'5 6.5
2017-Mar-23 19:33N 54°22' E 011°28'6 6.4
2017-Mar-23 18:34N 54°21' E 011°39'4 3.6
2017-Mar-23 17:33N 54°22' E 011°45'3 3.4
2017-Mar-23 16:32N 54°24' E 011°39'7 6.7
2017-Mar-23 15:33N 54°25' E 011°28'6 5.7
2017-Mar-23 14:33N 54°28' E 011°20'6 5.6
2017-Mar-23 13:33N 54°32' E 011°14'6 6.1
2017-Mar-23 12:33N 54°33' E 011°04'6 5.9
2017-Mar-23 11:33N 54°31' E 010°54'5 5.0
2017-Mar-23 10:34N 54°26' E 010°53'6 5.9
2017-Mar-23 09:33N 54°23' E 011°02'1 0.6
2017-Mar-23 08:33N 54°24' E 011°02'5 5.3
2017-Mar-23 07:33N 54°23' E 010°53'6 5.5
2017-Mar-23 06:33N 54°21' E 010°44'8 0.8
2017-Mar-22 19:32N 54°25' E 010°56'6 4.9
2017-Mar-22 18:16N 54°31' E 010°58'2 2.2
2017-Mar-22 17:33N 54°30' E 010°56'5 4.9
2017-Mar-22 16:33N 54°25' E 010°56'2 1.6
2017-Mar-22 15:33N 54°25' E 010°59'6 5.7
2017-Mar-22 14:33N 54°27' E 010°49'5 4.4
2017-Mar-22 13:31N 54°28' E 010°42'1 1.5
2017-Mar-22 12:33N 54°30' E 010°41'1 1.4
2017-Mar-22 11:33N 54°31' E 010°42'2 2.1
2017-Mar-22 10:33N 54°33' E 010°40'5 0.3
2017-Mar-21 14:24N 54°33' E 010°30'8 9.2
2017-Mar-21 13:33N 54°33' E 010°44'5 4.6
2017-Mar-21 12:33N 54°33' E 010°52'5 4.9
2017-Mar-21 11:33N 54°34' E 011°00'5 4.8
2017-Mar-21 10:33N 54°33' E 011°08'5 5.2
2017-Mar-21 09:33N 54°31' E 011°17'6 6.1
2017-Mar-21 08:33N 54°26' E 011°21'2 0.2
2017-Mar-20 18:14N 54°27' E 011°18'  

Dump ship's entire track history